Brightwood, Oregon
Current Conditions -  °F | °C
As of 6:53 AM on Tuesday 21 Oct 2014 (Local Time) from KTTD Reporting Station
Overcast Overcast  
Wind Chill: 56°   Ceiling: 7000
Heat Index: 56°   Visibility: 10mi
Dew Point: 49°   Wind: 14mph
Humidity: 77%   Direction: 200°SSW
Pressure: 29.94"   Gusts: NA
Location:  45.38°N, 122.02°W
Report Text: KTTD 211353Z AUTO 20012KT 10SM FEW060 BKN070 OVC110 13/09 A2994 RMK AO2 RAB12E26 SLP139 P0000 T01330094
Loading
Personal Weather Stations






























Interactive Weather Map
Tropical Storm Tracking
New forecast layout! Learn more

10-Day Weather Forecast

Advertisements
Track Severe Weather on mobile